sensor_id;sensor_type;location;lat;lon;timestamp;temperature;humidity
21895;DHT22;11112;51.270;7.224;2022-12-29T00:00:55;10.10;99.90
21895;DHT22;11112;51.270;7.224;2022-12-29T00:03:25;10.10;99.90
21895;DHT22;11112;51.270;7.224;2022-12-29T00:05:57;10.10;99.90
21895;DHT22;11112;51.270;7.224;2022-12-29T00:08:25;10.10;99.90
21895;DHT22;11112;51.270;7.224;2022-12-29T00:11:05;10.10;99.90
21895;DHT22;11112;51.270;7.224;2022-12-29T00:13:33;10.10;99.90
21895;DHT22;11112;51.270;7.224;2022-12-29T00:16:18;10.10;99.90
21895;DHT22;11112;51.270;7.224;2022-12-29T00:18:45;10.10;99.90
21895;DHT22;11112;51.270;7.224;2022-12-29T00:21:14;10.10;99.90
21895;DHT22;11112;51.270;7.224;2022-12-29T00:24:00;10.10;99.90
21895;DHT22;11112;51.270;7.224;2022-12-29T00:26:47;10.20;99.90
21895;DHT22;11112;51.270;7.224;2022-12-29T00:29:33;10.20;99.90
21895;DHT22;11112;51.270;7.224;2022-12-29T00:32:17;10.20;99.90
21895;DHT22;11112;51.270;7.224;2022-12-29T00:35:02;10.20;99.90
21895;DHT22;11112;51.270;7.224;2022-12-29T00:37:37;10.20;99.90
21895;DHT22;11112;51.270;7.224;2022-12-29T00:40:26;10.20;99.90
21895;DHT22;11112;51.270;7.224;2022-12-29T00:43:11;10.20;99.90
21895;DHT22;11112;51.270;7.224;2022-12-29T00:45:56;10.20;99.90
21895;DHT22;11112;51.270;7.224;2022-12-29T00:48:23;10.20;99.90
21895;DHT22;11112;51.270;7.224;2022-12-29T00:51:04;10.30;99.90
21895;DHT22;11112;51.270;7.224;2022-12-29T00:53:33;10.30;99.90
21895;DHT22;11112;51.270;7.224;2022-12-29T00:56:02;10.20;99.90
21895;DHT22;11112;51.270;7.224;2022-12-29T00:58:30;10.20;99.90
21895;DHT22;11112;51.270;7.224;2022-12-29T01:01:01;10.20;99.90
21895;DHT22;11112;51.270;7.224;2022-12-29T01:03:29;10.30;99.90
21895;DHT22;11112;51.270;7.224;2022-12-29T01:05:59;10.30;99.90
21895;DHT22;11112;51.270;7.224;2022-12-29T01:08:27;10.30;99.90
21895;DHT22;11112;51.270;7.224;2022-12-29T01:10:58;10.30;99.90
21895;DHT22;11112;51.270;7.224;2022-12-29T01:13:28;10.30;99.90
21895;DHT22;11112;51.270;7.224;2022-12-29T01:15:55;10.30;99.90
21895;DHT22;11112;51.270;7.224;2022-12-29T01:18:24;10.30;99.90
21895;DHT22;11112;51.270;7.224;2022-12-29T01:20:58;10.30;99.90
21895;DHT22;11112;51.270;7.224;2022-12-29T01:23:26;10.30;99.90
21895;DHT22;11112;51.270;7.224;2022-12-29T01:25:55;10.30;99.90
21895;DHT22;11112;51.270;7.224;2022-12-29T01:28:24;10.30;99.90
21895;DHT22;11112;51.270;7.224;2022-12-29T01:30:51;10.30;99.90
21895;DHT22;11112;51.270;7.224;2022-12-29T01:33:18;10.30;99.90
21895;DHT22;11112;51.270;7.224;2022-12-29T01:35:46;10.30;99.90
21895;DHT22;11112;51.270;7.224;2022-12-29T01:38:13;10.40;99.90
21895;DHT22;11112;51.270;7.224;2022-12-29T01:40:44;10.40;99.90
21895;DHT22;11112;51.270;7.224;2022-12-29T01:43:13;10.40;99.90
21895;DHT22;11112;51.270;7.224;2022-12-29T01:45:45;10.30;99.90
21895;DHT22;11112;51.270;7.224;2022-12-29T01:48:17;10.40;99.90
21895;DHT22;11112;51.270;7.224;2022-12-29T01:50:49;10.40;99.90
21895;DHT22;11112;51.270;7.224;2022-12-29T01:53:19;10.40;99.90
21895;DHT22;11112;51.270;7.224;2022-12-29T01:55:53;10.40;99.90
21895;DHT22;11112;51.270;7.224;2022-12-29T01:58:26;10.40;99.90
21895;DHT22;11112;51.270;7.224;2022-12-29T02:00:57;10.40;99.90
21895;DHT22;11112;51.270;7.224;2022-12-29T02:03:28;10.40;99.90
21895;DHT22;11112;51.270;7.224;2022-12-29T02:06:01;10.40;99.90
21895;DHT22;11112;51.270;7.224;2022-12-29T02:08:30;10.40;99.90
21895;DHT22;11112;51.270;7.224;2022-12-29T02:11:00;10.40;99.90
21895;DHT22;11112;51.270;7.224;2022-12-29T02:13:28;10.50;99.90
21895;DHT22;11112;51.270;7.224;2022-12-29T02:16:10;10.40;99.90
21895;DHT22;11112;51.270;7.224;2022-12-29T02:18:55;10.50;99.90
21895;DHT22;11112;51.270;7.224;2022-12-29T02:25:28;10.50;99.90
21895;DHT22;11112;51.270;7.224;2022-12-29T02:28:25;10.50;99.90
21895;DHT22;11112;51.270;7.224;2022-12-29T02:31:08;10.50;99.90
21895;DHT22;11112;51.270;7.224;2022-12-29T02:33:51;10.50;99.90
21895;DHT22;11112;51.270;7.224;2022-12-29T02:36:33;10.50;99.90
21895;DHT22;11112;51.270;7.224;2022-12-29T02:39:14;10.50;99.90
21895;DHT22;11112;51.270;7.224;2022-12-29T02:41:59;10.50;99.90
21895;DHT22;11112;51.270;7.224;2022-12-29T02:44:33;10.50;99.90
21895;DHT22;11112;51.270;7.224;2022-12-29T02:47:13;10.60;99.90
21895;DHT22;11112;51.270;7.224;2022-12-29T02:49:48;10.60;99.90
21895;DHT22;11112;51.270;7.224;2022-12-29T02:52:22;10.60;99.90
21895;DHT22;11112;51.270;7.224;2022-12-29T02:54:54;10.60;99.90
21895;DHT22;11112;51.270;7.224;2022-12-29T02:57:30;10.60;99.90
21895;DHT22;11112;51.270;7.224;2022-12-29T03:00:03;10.60;99.90
21895;DHT22;11112;51.270;7.224;2022-12-29T03:02:58;10.60;99.90
21895;DHT22;11112;51.270;7.224;2022-12-29T03:05:49;10.60;99.90
21895;DHT22;11112;51.270;7.224;2022-12-29T03:08:31;10.60;99.90
21895;DHT22;11112;51.270;7.224;2022-12-29T03:11:04;10.60;99.90
21895;DHT22;11112;51.270;7.224;2022-12-29T03:13:58;10.60;99.90
21895;DHT22;11112;51.270;7.224;2022-12-29T03:16:48;10.60;99.90
21895;DHT22;11112;51.270;7.224;2022-12-29T03:19:23;10.70;99.90
21895;DHT22;11112;51.270;7.224;2022-12-29T03:21:55;10.60;99.90
21895;DHT22;11112;51.270;7.224;2022-12-29T03:24:44;10.60;99.90
21895;DHT22;11112;51.270;7.224;2022-12-29T03:27:21;10.70;99.90
21895;DHT22;11112;51.270;7.224;2022-12-29T03:29:57;10.70;99.90
21895;DHT22;11112;51.270;7.224;2022-12-29T03:32:28;10.70;99.90
21895;DHT22;11112;51.270;7.224;2022-12-29T03:35:00;10.60;99.90
21895;DHT22;11112;51.270;7.224;2022-12-29T03:37:31;10.70;99.90
21895;DHT22;11112;51.270;7.224;2022-12-29T03:40:05;10.70;99.90
21895;DHT22;11112;51.270;7.224;2022-12-29T03:42:35;10.70;99.90
21895;DHT22;11112;51.270;7.224;2022-12-29T03:45:05;10.60;99.90
21895;DHT22;11112;51.270;7.224;2022-12-29T03:47:34;10.60;99.90
21895;DHT22;11112;51.270;7.224;2022-12-29T03:50:03;10.60;99.90
21895;DHT22;11112;51.270;7.224;2022-12-29T03:52:30;10.60;99.90
21895;DHT22;11112;51.270;7.224;2022-12-29T03:55:00;10.60;99.90
21895;DHT22;11112;51.270;7.224;2022-12-29T03:57:28;10.60;99.90
21895;DHT22;11112;51.270;7.224;2022-12-29T03:59:56;10.60;99.90
21895;DHT22;11112;51.270;7.224;2022-12-29T04:02:23;10.60;99.90
21895;DHT22;11112;51.270;7.224;2022-12-29T04:04:51;10.60;99.90
21895;DHT22;11112;51.270;7.224;2022-12-29T04:07:19;10.60;99.90
21895;DHT22;11112;51.270;7.224;2022-12-29T04:09:46;10.60;99.90
21895;DHT22;11112;51.270;7.224;2022-12-29T04:12:14;10.60;99.90
21895;DHT22;11112;51.270;7.224;2022-12-29T04:14:44;10.60;99.90
21895;DHT22;11112;51.270;7.224;2022-12-29T04:17:11;10.60;99.90
21895;DHT22;11112;51.270;7.224;2022-12-29T04:19:41;10.60;99.90
21895;DHT22;11112;51.270;7.224;2022-12-29T04:22:09;10.60;99.90
21895;DHT22;11112;51.270;7.224;2022-12-29T04:24:38;10.70;99.90
21895;DHT22;11112;51.270;7.224;2022-12-29T04:27:06;10.70;99.90
21895;DHT22;11112;51.270;7.224;2022-12-29T04:29:33;10.70;99.90
21895;DHT22;11112;51.270;7.224;2022-12-29T04:32:00;10.70;99.90
21895;DHT22;11112;51.270;7.224;2022-12-29T04:34:27;10.70;99.90
21895;DHT22;11112;51.270;7.224;2022-12-29T04:36:54;10.70;99.90
21895;DHT22;11112;51.270;7.224;2022-12-29T04:39:24;10.70;99.90
21895;DHT22;11112;51.270;7.224;2022-12-29T04:41:53;10.70;99.90
21895;DHT22;11112;51.270;7.224;2022-12-29T04:44:20;10.70;99.90
21895;DHT22;11112;51.270;7.224;2022-12-29T04:46:49;10.70;99.90
21895;DHT22;11112;51.270;7.224;2022-12-29T04:49:34;10.80;99.90
21895;DHT22;11112;51.270;7.224;2022-12-29T04:52:01;10.70;99.90
21895;DHT22;11112;51.270;7.224;2022-12-29T04:54:29;10.70;99.90
21895;DHT22;11112;51.270;7.224;2022-12-29T04:56:58;10.80;99.90
21895;DHT22;11112;51.270;7.224;2022-12-29T04:59:26;10.80;99.90
21895;DHT22;11112;51.270;7.224;2022-12-29T05:01:53;10.80;99.90
21895;DHT22;11112;51.270;7.224;2022-12-29T05:04:20;10.80;99.90
21895;DHT22;11112;51.270;7.224;2022-12-29T05:06:50;10.80;99.90
21895;DHT22;11112;51.270;7.224;2022-12-29T05:09:17;10.80;99.90
21895;DHT22;11112;51.270;7.224;2022-12-29T05:11:44;10.80;99.90
21895;DHT22;11112;51.270;7.224;2022-12-29T05:14:13;10.80;99.90
21895;DHT22;11112;51.270;7.224;2022-12-29T05:16:40;10.90;99.90
21895;DHT22;11112;51.270;7.224;2022-12-29T05:19:08;10.90;99.90
21895;DHT22;11112;51.270;7.224;2022-12-29T05:21:35;10.80;99.90
21895;DHT22;11112;51.270;7.224;2022-12-29T05:24:03;10.90;99.90
21895;DHT22;11112;51.270;7.224;2022-12-29T05:26:31;10.90;99.90
21895;DHT22;11112;51.270;7.224;2022-12-29T05:28:58;10.90;99.90
21895;DHT22;11112;51.270;7.224;2022-12-29T05:31:27;10.90;99.90
21895;DHT22;11112;51.270;7.224;2022-12-29T05:33:58;10.90;99.90
21895;DHT22;11112;51.270;7.224;2022-12-29T05:36:26;10.90;99.90
21895;DHT22;11112;51.270;7.224;2022-12-29T05:38:54;10.90;99.90
21895;DHT22;11112;51.270;7.224;2022-12-29T05:41:21;10.90;99.90
21895;DHT22;11112;51.270;7.224;2022-12-29T05:43:49;10.90;99.90
21895;DHT22;11112;51.270;7.224;2022-12-29T05:46:16;11.00;99.90
21895;DHT22;11112;51.270;7.224;2022-12-29T05:48:47;11.00;99.90
21895;DHT22;11112;51.270;7.224;2022-12-29T05:51:14;11.00;99.90
21895;DHT22;11112;51.270;7.224;2022-12-29T05:53:41;11.00;99.90
21895;DHT22;11112;51.270;7.224;2022-12-29T05:56:08;11.00;99.90
21895;DHT22;11112;51.270;7.224;2022-12-29T05:58:35;11.00;99.90
21895;DHT22;11112;51.270;7.224;2022-12-29T06:01:03;11.00;99.90
21895;DHT22;11112;51.270;7.224;2022-12-29T06:03:30;11.00;99.90
21895;DHT22;11112;51.270;7.224;2022-12-29T06:06:00;11.00;99.90
21895;DHT22;11112;51.270;7.224;2022-12-29T06:08:27;10.90;99.90
21895;DHT22;11112;51.270;7.224;2022-12-29T06:10:55;11.00;99.90
21895;DHT22;11112;51.270;7.224;2022-12-29T06:13:23;11.00;99.90
21895;DHT22;11112;51.270;7.224;2022-12-29T06:15:51;11.00;99.90
21895;DHT22;11112;51.270;7.224;2022-12-29T06:18:19;11.00;99.90
21895;DHT22;11112;51.270;7.224;2022-12-29T06:20:48;11.00;99.90
21895;DHT22;11112;51.270;7.224;2022-12-29T06:23:16;11.00;99.90
21895;DHT22;11112;51.270;7.224;2022-12-29T06:25:47;11.00;99.90
21895;DHT22;11112;51.270;7.224;2022-12-29T06:28:14;11.00;99.90
21895;DHT22;11112;51.270;7.224;2022-12-29T06:30:43;11.00;99.90
21895;DHT22;11112;51.270;7.224;2022-12-29T06:33:11;11.00;99.90
21895;DHT22;11112;51.270;7.224;2022-12-29T06:35:40;11.00;99.90
21895;DHT22;11112;51.270;7.224;2022-12-29T06:38:09;11.00;99.90
21895;DHT22;11112;51.270;7.224;2022-12-29T06:40:38;11.00;99.90
21895;DHT22;11112;51.270;7.224;2022-12-29T06:43:07;11.00;99.90
21895;DHT22;11112;51.270;7.224;2022-12-29T06:45:34;11.10;99.90
21895;DHT22;11112;51.270;7.224;2022-12-29T06:48:02;11.10;99.90
21895;DHT22;11112;51.270;7.224;2022-12-29T06:50:29;11.10;99.90
21895;DHT22;11112;51.270;7.224;2022-12-29T06:52:57;11.00;99.90
21895;DHT22;11112;51.270;7.224;2022-12-29T06:55:25;11.00;99.90
21895;DHT22;11112;51.270;7.224;2022-12-29T06:57:56;11.00;99.90
21895;DHT22;11112;51.270;7.224;2022-12-29T07:00:26;11.10;99.90
21895;DHT22;11112;51.270;7.224;2022-12-29T07:02:54;11.10;99.90
21895;DHT22;11112;51.270;7.224;2022-12-29T07:05:24;11.10;99.90
21895;DHT22;11112;51.270;7.224;2022-12-29T07:07:54;11.10;99.90
21895;DHT22;11112;51.270;7.224;2022-12-29T07:10:25;11.10;99.90
21895;DHT22;11112;51.270;7.224;2022-12-29T07:12:57;11.10;99.90
21895;DHT22;11112;51.270;7.224;2022-12-29T07:15:24;11.10;99.90
21895;DHT22;11112;51.270;7.224;2022-12-29T07:17:54;11.10;99.90
21895;DHT22;11112;51.270;7.224;2022-12-29T07:20:21;11.10;99.90
21895;DHT22;11112;51.270;7.224;2022-12-29T07:22:50;11.10;99.90
21895;DHT22;11112;51.270;7.224;2022-12-29T07:25:19;11.10;99.90
21895;DHT22;11112;51.270;7.224;2022-12-29T07:27:46;11.10;99.90
21895;DHT22;11112;51.270;7.224;2022-12-29T07:30:15;11.10;99.90
21895;DHT22;11112;51.270;7.224;2022-12-29T07:32:44;11.10;99.90
21895;DHT22;11112;51.270;7.224;2022-12-29T07:35:11;11.10;99.90
21895;DHT22;11112;51.270;7.224;2022-12-29T07:37:38;11.00;99.90
21895;DHT22;11112;51.270;7.224;2022-12-29T07:40:07;11.10;99.90
21895;DHT22;11112;51.270;7.224;2022-12-29T07:42:37;11.10;99.90
21895;DHT22;11112;51.270;7.224;2022-12-29T07:45:05;11.10;99.90
21895;DHT22;11112;51.270;7.224;2022-12-29T07:47:36;11.10;99.90
21895;DHT22;11112;51.270;7.224;2022-12-29T07:50:04;11.10;99.90
21895;DHT22;11112;51.270;7.224;2022-12-29T07:52:32;11.10;99.90
21895;DHT22;11112;51.270;7.224;2022-12-29T07:54:59;11.10;99.90
21895;DHT22;11112;51.270;7.224;2022-12-29T07:57:27;11.10;99.90
21895;DHT22;11112;51.270;7.224;2022-12-29T07:59:54;11.00;99.90
21895;DHT22;11112;51.270;7.224;2022-12-29T08:02:21;11.10;99.90
21895;DHT22;11112;51.270;7.224;2022-12-29T08:04:51;11.00;99.90
21895;DHT22;11112;51.270;7.224;2022-12-29T08:07:18;11.00;99.90
21895;DHT22;11112;51.270;7.224;2022-12-29T08:09:46;11.00;99.90
21895;DHT22;11112;51.270;7.224;2022-12-29T08:12:14;11.00;99.90
21895;DHT22;11112;51.270;7.224;2022-12-29T08:14:41;11.00;99.90
21895;DHT22;11112;51.270;7.224;2022-12-29T08:17:10;11.10;99.90
21895;DHT22;11112;51.270;7.224;2022-12-29T08:19:38;11.10;99.90
21895;DHT22;11112;51.270;7.224;2022-12-29T08:22:07;11.10;99.90
21895;DHT22;11112;51.270;7.224;2022-12-29T08:24:34;11.10;99.90
21895;DHT22;11112;51.270;7.224;2022-12-29T08:27:01;11.10;99.90
21895;DHT22;11112;51.270;7.224;2022-12-29T08:29:31;11.10;99.90
21895;DHT22;11112;51.270;7.224;2022-12-29T08:32:03;11.00;99.90
21895;DHT22;11112;51.270;7.224;2022-12-29T08:34:32;11.10;99.90
21895;DHT22;11112;51.270;7.224;2022-12-29T08:37:00;11.10;99.90
21895;DHT22;11112;51.270;7.224;2022-12-29T08:39:30;11.10;99.90
21895;DHT22;11112;51.270;7.224;2022-12-29T08:42:01;11.10;99.90
21895;DHT22;11112;51.270;7.224;2022-12-29T08:44:28;11.00;99.90
21895;DHT22;11112;51.270;7.224;2022-12-29T08:46:55;11.10;99.90
21895;DHT22;11112;51.270;7.224;2022-12-29T08:49:24;11.10;99.90
21895;DHT22;11112;51.270;7.224;2022-12-29T08:51:51;11.10;99.90
21895;DHT22;11112;51.270;7.224;2022-12-29T08:54:18;11.10;99.90
21895;DHT22;11112;51.270;7.224;2022-12-29T08:56:47;11.10;99.90
21895;DHT22;11112;51.270;7.224;2022-12-29T08:59:14;11.10;99.90
21895;DHT22;11112;51.270;7.224;2022-12-29T09:01:45;11.10;99.90
21895;DHT22;11112;51.270;7.224;2022-12-29T09:04:14;11.10;99.90
21895;DHT22;11112;51.270;7.224;2022-12-29T09:06:43;11.10;99.90
21895;DHT22;11112;51.270;7.224;2022-12-29T09:09:10;11.10;99.90
21895;DHT22;11112;51.270;7.224;2022-12-29T09:11:38;11.10;99.90
21895;DHT22;11112;51.270;7.224;2022-12-29T09:14:07;11.10;99.90
21895;DHT22;11112;51.270;7.224;2022-12-29T09:16:35;11.10;99.90
21895;DHT22;11112;51.270;7.224;2022-12-29T09:19:03;11.10;99.90
21895;DHT22;11112;51.270;7.224;2022-12-29T09:21:31;11.00;99.90
21895;DHT22;11112;51.270;7.224;2022-12-29T09:24:02;11.00;99.90
21895;DHT22;11112;51.270;7.224;2022-12-29T09:26:30;11.00;99.90
21895;DHT22;11112;51.270;7.224;2022-12-29T09:28:58;11.00;99.90
21895;DHT22;11112;51.270;7.224;2022-12-29T09:31:26;11.00;99.90
21895;DHT22;11112;51.270;7.224;2022-12-29T09:33:54;11.00;99.90
21895;DHT22;11112;51.270;7.224;2022-12-29T09:36:22;11.00;99.90
21895;DHT22;11112;51.270;7.224;2022-12-29T09:38:50;11.00;99.90
21895;DHT22;11112;51.270;7.224;2022-12-29T09:41:24;11.00;99.90
21895;DHT22;11112;51.270;7.224;2022-12-29T09:44:08;11.00;99.90
21895;DHT22;11112;51.270;7.224;2022-12-29T09:46:53;11.00;99.90
21895;DHT22;11112;51.270;7.224;2022-12-29T09:49:28;11.00;99.90
21895;DHT22;11112;51.270;7.224;2022-12-29T09:52:03;11.00;99.90
21895;DHT22;11112;51.270;7.224;2022-12-29T09:54:43;11.10;99.90
21895;DHT22;11112;51.270;7.224;2022-12-29T09:57:18;11.00;99.90
21895;DHT22;11112;51.270;7.224;2022-12-29T09:59:54;11.00;99.90
21895;DHT22;11112;51.270;7.224;2022-12-29T10:02:32;11.00;99.90
21895;DHT22;11112;51.270;7.224;2022-12-29T10:05:16;11.10;99.90
21895;DHT22;11112;51.270;7.224;2022-12-29T10:07:54;11.10;99.90
21895;DHT22;11112;51.270;7.224;2022-12-29T10:10:45;11.10;99.90
21895;DHT22;11112;51.270;7.224;2022-12-29T10:13:27;11.10;99.90
21895;DHT22;11112;51.270;7.224;2022-12-29T10:16:11;11.10;99.90
21895;DHT22;11112;51.270;7.224;2022-12-29T10:18:56;11.10;99.90
21895;DHT22;11112;51.270;7.224;2022-12-29T10:21:43;11.10;99.90
21895;DHT22;11112;51.270;7.224;2022-12-29T10:24:16;11.10;99.90
21895;DHT22;11112;51.270;7.224;2022-12-29T10:26:46;11.10;99.90
21895;DHT22;11112;51.270;7.224;2022-12-29T10:29:18;11.10;99.90
21895;DHT22;11112;51.270;7.224;2022-12-29T10:31:50;11.10;99.90
21895;DHT22;11112;51.270;7.224;2022-12-29T10:34:26;11.10;99.90
21895;DHT22;11112;51.270;7.224;2022-12-29T10:37:02;11.10;99.90
21895;DHT22;11112;51.270;7.224;2022-12-29T10:39:37;11.10;99.90
21895;DHT22;11112;51.270;7.224;2022-12-29T10:42:11;11.10;99.90
21895;DHT22;11112;51.270;7.224;2022-12-29T10:44:41;11.10;99.50
21895;DHT22;11112;51.270;7.224;2022-12-29T10:47:13;11.10;99.90
21895;DHT22;11112;51.270;7.224;2022-12-29T10:49:47;11.10;99.70
21895;DHT22;11112;51.270;7.224;2022-12-29T10:52:16;11.10;99.50
21895;DHT22;11112;51.270;7.224;2022-12-29T10:54:47;11.20;99.50
21895;DHT22;11112;51.270;7.224;2022-12-29T10:57:25;11.10;99.70
21895;DHT22;11112;51.270;7.224;2022-12-29T10:59:54;11.10;99.60
21895;DHT22;11112;51.270;7.224;2022-12-29T11:02:46;11.20;99.60
21895;DHT22;11112;51.270;7.224;2022-12-29T11:05:57;11.20;99.90
21895;DHT22;11112;51.270;7.224;2022-12-29T11:08:35;11.20;99.60
21895;DHT22;11112;51.270;7.224;2022-12-29T11:11:05;11.20;99.70
21895;DHT22;11112;51.270;7.224;2022-12-29T11:13:35;11.20;99.60
21895;DHT22;11112;51.270;7.224;2022-12-29T11:16:13;11.20;99.50
21895;DHT22;11112;51.270;7.224;2022-12-29T11:18:41;11.20;99.50
21895;DHT22;11112;51.270;7.224;2022-12-29T11:21:30;11.20;99.20
21895;DHT22;11112;51.270;7.224;2022-12-29T11:24:00;11.20;99.30
21895;DHT22;11112;51.270;7.224;2022-12-29T11:26:30;11.20;99.40
21895;DHT22;11112;51.270;7.224;2022-12-29T11:29:21;11.10;99.30
21895;DHT22;11112;51.270;7.224;2022-12-29T11:31:52;11.20;99.20
21895;DHT22;11112;51.270;7.224;2022-12-29T11:34:23;11.20;99.30
21895;DHT22;11112;51.270;7.224;2022-12-29T11:36:58;11.20;99.40
21895;DHT22;11112;51.270;7.224;2022-12-29T11:39:44;11.20;99.50
21895;DHT22;11112;51.270;7.224;2022-12-29T11:42:21;11.20;99.20
21895;DHT22;11112;51.270;7.224;2022-12-29T11:44:55;11.20;99.20
21895;DHT22;11112;51.270;7.224;2022-12-29T11:47:28;11.20;99.40
21895;DHT22;11112;51.270;7.224;2022-12-29T11:50:00;11.20;99.40
21895;DHT22;11112;51.270;7.224;2022-12-29T11:52:35;11.20;99.50
21895;DHT22;11112;51.270;7.224;2022-12-29T11:55:13;11.20;99.20
21895;DHT22;11112;51.270;7.224;2022-12-29T11:57:45;11.20;99.40
21895;DHT22;11112;51.270;7.224;2022-12-29T12:00:18;11.20;99.30
21895;DHT22;11112;51.270;7.224;2022-12-29T12:02:54;11.20;99.50
21895;DHT22;11112;51.270;7.224;2022-12-29T12:05:41;11.20;99.30
21895;DHT22;11112;51.270;7.224;2022-12-29T12:08:18;11.20;99.20
21895;DHT22;11112;51.270;7.224;2022-12-29T12:11:04;11.20;99.00
21895;DHT22;11112;51.270;7.224;2022-12-29T12:13:38;11.20;98.90
21895;DHT22;11112;51.270;7.224;2022-12-29T12:16:12;11.20;99.00
21895;DHT22;11112;51.270;7.224;2022-12-29T12:18:45;11.20;99.20
21895;DHT22;11112;51.270;7.224;2022-12-29T12:21:22;11.20;98.80
21895;DHT22;11112;51.270;7.224;2022-12-29T12:27:15;11.20;98.60
21895;DHT22;11112;51.270;7.224;2022-12-29T12:29:50;11.10;98.60
21895;DHT22;11112;51.270;7.224;2022-12-29T12:32:23;11.20;98.70
21895;DHT22;11112;51.270;7.224;2022-12-29T12:34:54;11.20;98.90
21895;DHT22;11112;51.270;7.224;2022-12-29T12:37:51;11.20;98.70
21895;DHT22;11112;51.270;7.224;2022-12-29T12:40:34;11.20;98.90
21895;DHT22;11112;51.270;7.224;2022-12-29T12:46:52;11.20;99.10
21895;DHT22;11112;51.270;7.224;2022-12-29T12:53:03;11.20;98.70
21895;DHT22;11112;51.270;7.224;2022-12-29T12:55:56;11.20;98.60
21895;DHT22;11112;51.270;7.224;2022-12-29T12:58:36;11.20;98.70
21895;DHT22;11112;51.270;7.224;2022-12-29T13:01:18;11.20;98.60
21895;DHT22;11112;51.270;7.224;2022-12-29T13:04:05;11.20;98.20
21895;DHT22;11112;51.270;7.224;2022-12-29T13:06:50;11.20;98.40
21895;DHT22;11112;51.270;7.224;2022-12-29T13:09:30;11.10;98.30
21895;DHT22;11112;51.270;7.224;2022-12-29T13:12:14;11.10;98.60
21895;DHT22;11112;51.270;7.224;2022-12-29T13:14:59;11.10;98.70
21895;DHT22;11112;51.270;7.224;2022-12-29T13:17:35;11.10;98.60
21895;DHT22;11112;51.270;7.224;2022-12-29T13:20:17;11.10;99.10
21895;DHT22;11112;51.270;7.224;2022-12-29T13:22:50;11.10;98.60
21895;DHT22;11112;51.270;7.224;2022-12-29T13:25:31;11.10;98.70
21895;DHT22;11112;51.270;7.224;2022-12-29T13:28:09;11.20;98.80
21895;DHT22;11112;51.270;7.224;2022-12-29T13:30:45;11.10;98.70
21895;DHT22;11112;51.270;7.224;2022-12-29T13:33:22;11.20;98.70
21895;DHT22;11112;51.270;7.224;2022-12-29T13:35:57;11.20;98.70
21895;DHT22;11112;51.270;7.224;2022-12-29T13:38:32;11.20;98.70
21895;DHT22;11112;51.270;7.224;2022-12-29T13:41:05;11.20;98.70
21895;DHT22;11112;51.270;7.224;2022-12-29T13:43:38;11.20;98.50
21895;DHT22;11112;51.270;7.224;2022-12-29T13:46:10;11.20;98.60
21895;DHT22;11112;51.270;7.224;2022-12-29T13:48:43;11.20;98.70
21895;DHT22;11112;51.270;7.224;2022-12-29T13:51:13;11.20;98.50
21895;DHT22;11112;51.270;7.224;2022-12-29T13:54:01;11.20;98.60
21895;DHT22;11112;51.270;7.224;2022-12-29T13:56:38;11.20;98.50
21895;DHT22;11112;51.270;7.224;2022-12-29T13:59:14;11.20;98.20
21895;DHT22;11112;51.270;7.224;2022-12-29T14:01:50;11.20;97.90
21895;DHT22;11112;51.270;7.224;2022-12-29T14:04:23;11.10;97.90
21895;DHT22;11112;51.270;7.224;2022-12-29T14:07:00;11.20;98.00
21895;DHT22;11112;51.270;7.224;2022-12-29T14:09:42;11.20;97.40
21895;DHT22;11112;51.270;7.224;2022-12-29T14:12:31;11.10;97.50
21895;DHT22;11112;51.270;7.224;2022-12-29T14:15:06;11.20;97.50
21895;DHT22;11112;51.270;7.224;2022-12-29T14:17:42;11.20;97.60
21895;DHT22;11112;51.270;7.224;2022-12-29T14:20:18;11.10;97.40
21895;DHT22;11112;51.270;7.224;2022-12-29T14:22:59;11.20;97.10
21895;DHT22;11112;51.270;7.224;2022-12-29T14:25:56;11.20;97.20
21895;DHT22;11112;51.270;7.224;2022-12-29T14:28:27;11.10;97.10
21895;DHT22;11112;51.270;7.224;2022-12-29T14:30:57;11.20;97.40
21895;DHT22;11112;51.270;7.224;2022-12-29T14:33:26;11.20;97.20
21895;DHT22;11112;51.270;7.224;2022-12-29T14:35:57;11.20;97.40
21895;DHT22;11112;51.270;7.224;2022-12-29T14:38:49;11.20;97.40
21895;DHT22;11112;51.270;7.224;2022-12-29T14:41:30;11.20;97.40
21895;DHT22;11112;51.270;7.224;2022-12-29T14:44:14;11.20;97.40
21895;DHT22;11112;51.270;7.224;2022-12-29T14:46:46;11.20;97.70
21895;DHT22;11112;51.270;7.224;2022-12-29T14:49:19;11.20;97.60
21895;DHT22;11112;51.270;7.224;2022-12-29T14:51:50;11.20;97.50
21895;DHT22;11112;51.270;7.224;2022-12-29T14:54:42;11.10;97.20
21895;DHT22;11112;51.270;7.224;2022-12-29T14:57:19;11.10;97.40
21895;DHT22;11112;51.270;7.224;2022-12-29T14:59:53;11.10;97.30
21895;DHT22;11112;51.270;7.224;2022-12-29T15:02:24;11.10;97.30
21895;DHT22;11112;51.270;7.224;2022-12-29T15:04:53;11.10;97.10
21895;DHT22;11112;51.270;7.224;2022-12-29T15:07:22;11.10;97.30
21895;DHT22;11112;51.270;7.224;2022-12-29T15:09:54;11.10;97.10
21895;DHT22;11112;51.270;7.224;2022-12-29T15:12:33;11.10;97.20
21895;DHT22;11112;51.270;7.224;2022-12-29T15:15:18;11.10;97.20
21895;DHT22;11112;51.270;7.224;2022-12-29T15:17:46;11.10;97.10
21895;DHT22;11112;51.270;7.224;2022-12-29T15:20:23;11.10;97.30
21895;DHT22;11112;51.270;7.224;2022-12-29T15:22:57;11.10;97.50
21895;DHT22;11112;51.270;7.224;2022-12-29T15:25:27;11.10;97.30
21895;DHT22;11112;51.270;7.224;2022-12-29T15:27:59;11.10;97.40
21895;DHT22;11112;51.270;7.224;2022-12-29T15:30:27;11.10;97.40
21895;DHT22;11112;51.270;7.224;2022-12-29T15:32:55;11.10;97.30
21895;DHT22;11112;51.270;7.224;2022-12-29T15:35:25;11.10;97.30
21895;DHT22;11112;51.270;7.224;2022-12-29T15:37:56;11.10;97.40
21895;DHT22;11112;51.270;7.224;2022-12-29T15:40:26;11.00;97.30
21895;DHT22;11112;51.270;7.224;2022-12-29T15:45:51;11.10;97.70
21895;DHT22;11112;51.270;7.224;2022-12-29T15:48:21;11.00;97.20
21895;DHT22;11112;51.270;7.224;2022-12-29T15:50:51;11.00;97.20
21895;DHT22;11112;51.270;7.224;2022-12-29T15:53:21;11.00;97.30
21895;DHT22;11112;51.270;7.224;2022-12-29T15:55:54;11.00;97.20
21895;DHT22;11112;51.270;7.224;2022-12-29T15:58:23;11.00;97.40
21895;DHT22;11112;51.270;7.224;2022-12-29T16:00:53;11.00;97.50
21895;DHT22;11112;51.270;7.224;2022-12-29T16:03:23;11.00;97.50
21895;DHT22;11112;51.270;7.224;2022-12-29T16:05:53;11.10;97.40
21895;DHT22;11112;51.270;7.224;2022-12-29T16:08:28;11.00;97.40
21895;DHT22;11112;51.270;7.224;2022-12-29T16:11:00;11.00;97.50
21895;DHT22;11112;51.270;7.224;2022-12-29T16:13:31;11.00;97.10
21895;DHT22;11112;51.270;7.224;2022-12-29T16:16:02;11.00;97.20
21895;DHT22;11112;51.270;7.224;2022-12-29T16:18:37;11.00;97.00
21895;DHT22;11112;51.270;7.224;2022-12-29T16:21:12;11.00;97.00
21895;DHT22;11112;51.270;7.224;2022-12-29T16:23:47;11.00;97.20